Time;durP1;ratioP1;P1;durP2;ratioP2;P2;SDS_P1;SDS_P2;PMS_P1;PMS_P2;Temp;Humidity;BMP_temperature;BMP_pressure;BME280_temperature;BME280_humidity;BME280_pressure;Samples;Min_cycle;Max_cycle;Signal;HPM_P1;HPM_P2
2021/06/28 00:00:37;;;;;;;4.28;2.63;;;23.60;55.00;;;;;;5032988;28;20531;-69
2021/06/28 00:03:03;;;;;;;4.32;2.45;;;23.60;54.90;;;;;;5032914;28;20120;-70
2021/06/28 00:05:28;;;;;;;4.43;2.30;;;23.60;55.00;;;;;;5032936;28;20033;-69
2021/06/28 00:07:54;;;;;;;5.32;2.35;;;23.60;55.00;;;;;;5032820;28;20099;-70
2021/06/28 00:10:23;;;;;;;3.78;2.05;;;23.60;54.90;;;;;;5032975;28;20104;-70
2021/06/28 00:12:50;;;;;;;4.18;2.20;;;23.60;55.00;;;;;;5033032;28;20073;-69
2021/06/28 00:15:19;;;;;;;3.97;2.38;;;23.50;55.10;;;;;;5032950;28;20025;-70
2021/06/28 00:17:46;;;;;;;4.22;2.05;;;23.50;55.10;;;;;;5033198;28;20030;-69
2021/06/28 00:20:12;;;;;;;3.60;2.38;;;23.50;55.20;;;;;;5032670;28;20022;-69
2021/06/28 00:22:38;;;;;;;4.15;2.38;;;23.50;55.10;;;;;;5032847;28;20033;-70
2021/06/28 00:25:09;;;;;;;4.28;2.58;;;23.50;55.20;;;;;;5034129;28;20040;-70
2021/06/28 00:27:39;;;;;;;4.57;2.38;;;23.50;55.20;;;;;;5036835;28;20064;-69
2021/06/28 00:30:06;;;;;;;4.10;2.38;;;23.50;55.20;;;;;;5037561;28;20029;-69
2021/06/28 00:32:32;;;;;;;4.85;2.63;;;23.50;55.20;;;;;;5037381;28;20112;-69
2021/06/28 00:34:58;;;;;;;4.60;2.60;;;23.50;55.20;;;;;;5036445;28;20053;-69
2021/06/28 00:37:23;;;;;;;4.18;2.30;;;23.50;55.20;;;;;;5036359;28;20032;-69
2021/06/28 00:39:49;;;;;;;3.92;2.58;;;23.50;55.20;;;;;;5036782;28;20052;-69
2021/06/28 00:42:14;;;;;;;4.28;2.63;;;23.50;55.20;;;;;;5036401;28;20484;-69
2021/06/28 00:44:40;;;;;;;3.92;2.35;;;23.50;55.20;;;;;;5036235;28;20409;-69
2021/06/28 00:47:05;;;;;;;4.38;2.53;;;23.50;55.30;;;;;;5018547;28;20040;-69
2021/06/28 00:49:31;;;;;;;3.67;2.35;;;23.50;55.30;;;;;;5035935;28;20026;-70
2021/06/28 00:51:57;;;;;;;5.55;2.63;;;23.50;55.30;;;;;;5036099;28;20026;-69
2021/06/28 00:54:25;;;;;;;3.97;2.47;;;23.50;55.30;;;;;;5036055;28;20112;-69
2021/06/28 00:56:52;;;;;;;3.85;2.30;;;23.50;55.40;;;;;;5035905;28;20393;-69
2021/06/28 00:59:18;;;;;;;3.83;2.30;;;23.50;55.30;;;;;;5036115;28;20030;-70
2021/06/28 01:01:44;;;;;;;4.30;2.38;;;23.50;55.40;;;;;;5036022;28;20056;-70
2021/06/28 01:04:10;;;;;;;4.03;2.58;;;23.50;55.30;;;;;;5035877;28;20025;-70
2021/06/28 01:06:35;;;;;;;5.25;2.47;;;23.50;55.30;;;;;;5035724;28;20386;-69
2021/06/28 01:09:01;;;;;;;3.60;2.22;;;23.50;55.40;;;;;;5035673;28;20022;-69
2021/06/28 01:11:26;;;;;;;3.90;2.33;;;23.50;55.40;;;;;;5035331;28;20478;-69
2021/06/28 01:13:52;;;;;;;5.18;2.53;;;23.50;55.40;;;;;;5035413;28;20014;-69
2021/06/28 01:16:19;;;;;;;5.22;2.55;;;23.50;55.40;;;;;;5035276;28;20033;-69
2021/06/28 01:18:44;;;;;;;3.90;2.38;;;23.40;55.40;;;;;;5035256;28;20088;-70
2021/06/28 01:21:11;;;;;;;3.78;2.28;;;23.50;55.50;;;;;;5035244;28;20040;-70
2021/06/28 01:23:38;;;;;;;5.18;2.60;;;23.40;55.60;;;;;;5035103;28;20438;-69
2021/06/28 01:26:09;;;;;;;3.60;2.30;;;23.50;55.50;;;;;;5035177;28;20378;-70
2021/06/28 01:28:36;;;;;;;4.07;2.25;;;23.40;55.40;;;;;;5035342;28;20037;-69
2021/06/28 01:31:04;;;;;;;4.38;2.35;;;23.50;55.50;;;;;;5035514;28;20078;-69
2021/06/28 01:33:30;;;;;;;4.40;2.58;;;23.40;55.50;;;;;;5035351;28;20163;-70
2021/06/28 01:35:56;;;;;;;4.65;2.65;;;23.40;55.60;;;;;;5035177;28;20065;-70
2021/06/28 01:38:22;;;;;;;2.88;2.08;;;23.40;55.70;;;;;;5034736;28;20053;-69
2021/06/28 01:40:47;;;;;;;3.50;2.20;;;23.40;55.70;;;;;;5035487;28;20110;-68
2021/06/28 01:43:13;;;;;;;3.83;2.30;;;23.40;55.70;;;;;;5035389;28;20458;-69
2021/06/28 01:45:39;;;;;;;3.78;2.40;;;23.40;55.70;;;;;;5035059;28;20045;-70
2021/06/28 01:48:06;;;;;;;4.65;2.30;;;23.40;55.70;;;;;;5035171;28;20076;-70
2021/06/28 01:50:34;;;;;;;3.92;2.28;;;23.40;55.80;;;;;;5035225;28;20068;-69
2021/06/28 01:53:00;;;;;;;4.32;2.47;;;23.40;55.80;;;;;;5035231;28;20083;-70
2021/06/28 01:55:26;;;;;;;4.45;2.47;;;23.40;55.80;;;;;;5035134;28;20033;-69
2021/06/28 01:57:55;;;;;;;6.13;2.60;;;23.40;55.80;;;;;;5037268;28;20034;-70
2021/06/28 02:00:25;;;;;;;3.83;2.30;;;23.40;55.80;;;;;;5037941;28;20030;-69
2021/06/28 02:02:57;;;;;;;3.50;2.00;;;23.40;55.80;;;;;;5039185;28;20033;-69
2021/06/28 02:05:24;;;;;;;5.07;2.65;;;23.30;55.80;;;;;;5035094;28;20079;-70
2021/06/28 02:07:49;;;;;;;4.03;2.17;;;23.40;55.80;;;;;;5035096;28;20022;-70
2021/06/28 02:10:15;;;;;;;3.15;2.08;;;23.30;55.90;;;;;;5037524;28;20028;-69
2021/06/28 02:12:40;;;;;;;3.95;2.38;;;23.40;55.90;;;;;;5036226;28;20032;-70
2021/06/28 02:15:06;;;;;;;3.72;2.35;;;23.30;55.90;;;;;;5034943;28;20025;-69
2021/06/28 02:17:32;;;;;;;4.88;2.65;;;23.30;55.90;;;;;;5034255;28;20025;-70
2021/06/28 02:19:58;;;;;;;4.28;2.28;;;23.30;55.90;;;;;;5034519;28;20043;-69
2021/06/28 02:22:23;;;;;;;3.63;2.30;;;23.30;55.90;;;;;;5034480;28;20033;-69
2021/06/28 02:24:49;;;;;;;4.80;2.30;;;23.30;55.90;;;;;;5034481;28;20029;-69
2021/06/28 02:27:14;;;;;;;4.32;2.38;;;23.30;55.90;;;;;;5034365;28;20028;-70
2021/06/28 02:29:40;;;;;;;4.57;2.40;;;23.30;56.00;;;;;;5034354;28;20044;-69
2021/06/28 02:32:06;;;;;;;5.25;2.60;;;23.30;56.00;;;;;;5034141;28;20055;-70
2021/06/28 02:34:31;;;;;;;4.63;2.40;;;23.30;56.00;;;;;;5016505;28;20028;-69
2021/06/28 02:36:57;;;;;;;4.45;2.60;;;23.30;56.00;;;;;;5034245;28;20366;-70
2021/06/28 02:39:23;;;;;;;4.32;2.60;;;23.30;56.00;;;;;;5034304;28;20044;-70
2021/06/28 02:41:48;;;;;;;4.03;2.35;;;23.30;56.00;;;;;;5033885;28;20034;-70
2021/06/28 02:44:14;;;;;;;4.45;2.40;;;23.30;56.00;;;;;;5033922;28;20256;-69
2021/06/28 02:46:39;;;;;;;4.72;2.50;;;23.20;56.00;;;;;;5033782;28;20049;-69
2021/06/28 02:49:05;;;;;;;3.95;2.30;;;23.20;56.00;;;;;;5032984;28;20022;-70
2021/06/28 02:51:31;;;;;;;5.10;2.53;;;23.30;56.10;;;;;;5033875;28;20109;-70
2021/06/28 02:53:57;;;;;;;3.90;2.15;;;23.20;56.10;;;;;;5033749;28;20048;-69
2021/06/28 02:56:23;;;;;;;4.40;2.53;;;23.20;56.10;;;;;;5033663;28;20120;-70
2021/06/28 02:58:54;;;;;;;3.28;2.00;;;23.20;56.10;;;;;;5033949;28;20477;-70
2021/06/28 03:01:22;;;;;;;4.68;2.70;;;23.20;56.10;;;;;;5033676;28;20043;-70
2021/06/28 03:03:49;;;;;;;5.25;2.78;;;23.20;56.10;;;;;;5033650;28;20026;-69
2021/06/28 03:06:15;;;;;;;4.70;2.72;;;23.20;56.20;;;;;;5033893;28;20056;-69
2021/06/28 03:08:44;;;;;;;4.43;2.72;;;23.20;56.20;;;;;;5033626;28;20025;-69
2021/06/28 03:11:11;;;;;;;4.10;2.38;;;23.20;56.20;;;;;;5033594;28;20022;-70
2021/06/28 03:13:37;;;;;;;4.30;2.30;;;23.20;56.20;;;;;;5033506;28;20033;-70
2021/06/28 03:16:04;;;;;;;4.38;2.67;;;23.20;56.30;;;;;;5033422;28;20032;-69
2021/06/28 03:18:31;;;;;;;4.90;2.53;;;23.20;56.20;;;;;;5033363;28;20049;-70
2021/06/28 03:20:57;;;;;;;4.68;2.50;;;23.20;56.20;;;;;;5033525;28;20029;-69
2021/06/28 03:23:23;;;;;;;5.53;2.58;;;23.20;56.30;;;;;;5033348;28;20040;-70
2021/06/28 03:25:49;;;;;;;4.20;2.78;;;23.10;56.20;;;;;;5033132;28;20481;-70
2021/06/28 03:28:15;;;;;;;4.28;2.42;;;23.20;56.30;;;;;;5033273;28;20029;-70
2021/06/28 03:30:41;;;;;;;3.40;2.10;;;23.20;56.30;;;;;;5033299;28;20035;-69
2021/06/28 03:33:06;;;;;;;4.07;2.35;;;23.10;56.30;;;;;;5033064;28;20531;-70
2021/06/28 03:35:32;;;;;;;4.53;2.70;;;23.20;56.30;;;;;;5033240;28;20033;-70
2021/06/28 03:37:58;;;;;;;5.35;2.75;;;23.10;56.40;;;;;;5015493;28;20156;-69
2021/06/28 03:40:24;;;;;;;4.70;2.50;;;23.20;56.40;;;;;;5033436;28;20029;-70
2021/06/28 03:42:50;;;;;;;3.78;2.30;;;23.10;56.40;;;;;;5033020;28;20547;-70
2021/06/28 03:45:16;;;;;;;4.95;2.50;;;23.10;56.40;;;;;;5033054;28;20046;-69
2021/06/28 03:47:42;;;;;;;4.60;2.47;;;23.20;56.40;;;;;;5033163;28;20033;-70
2021/06/28 03:50:09;;;;;;;4.72;2.47;;;23.10;56.50;;;;;;5033127;28;20047;-69
2021/06/28 03:52:35;;;;;;;3.47;2.40;;;23.10;56.40;;;;;;5015372;28;20440;-70
2021/06/28 03:55:02;;;;;;;4.93;2.63;;;23.10;56.50;;;;;;5033125;28;20041;-70
2021/06/28 03:57:27;;;;;;;3.95;2.25;;;23.10;56.40;;;;;;5032742;28;20026;-70
2021/06/28 03:59:53;;;;;;;3.88;2.63;;;23.10;56.50;;;;;;5034082;28;20075;-70
2021/06/28 04:02:18;;;;;;;4.38;2.30;;;23.10;56.50;;;;;;5037161;28;20049;-70
2021/06/28 04:04:48;;;;;;;5.85;2.50;;;23.10;56.50;;;;;;5036986;28;20517;-70
2021/06/28 04:07:14;;;;;;;4.65;2.90;;;23.10;56.50;;;;;;5037196;28;20076;-70
2021/06/28 04:09:41;;;;;;;3.85;2.33;;;23.10;56.50;;;;;;5036866;28;20028;-70
2021/06/28 04:12:07;;;;;;;5.70;2.35;;;23.10;56.50;;;;;;5036715;28;20049;-70
2021/06/28 04:14:32;;;;;;;5.22;3.00;;;23.10;56.50;;;;;;5036558;28;20052;-70
2021/06/28 04:16:58;;;;;;;4.32;2.58;;;23.10;56.50;;;;;;5036709;28;20480;-70
2021/06/28 04:19:23;;;;;;;4.97;2.60;;;23.10;56.60;;;;;;5036529;28;20029;-70
2021/06/28 04:21:49;;;;;;;5.22;2.97;;;23.00;56.50;;;;;;5036512;28;20028;-70
2021/06/28 04:24:14;;;;;;;4.90;2.30;;;23.10;56.60;;;;;;5036575;28;20032;-70
2021/06/28 04:26:40;;;;;;;4.38;2.65;;;23.10;56.60;;;;;;5036448;28;20037;-70
2021/06/28 04:29:05;;;;;;;5.28;2.65;;;23.00;56.60;;;;;;5036469;28;20120;-69
2021/06/28 04:31:32;;;;;;;3.38;1.95;;;23.10;56.60;;;;;;5036342;28;20064;-70
2021/06/28 04:33:57;;;;;;;3.83;2.28;;;23.00;56.60;;;;;;5036461;28;20018;-70
2021/06/28 04:36:24;;;;;;;4.53;2.80;;;23.10;56.60;;;;;;5036403;28;20172;-70
2021/06/28 04:38:49;;;;;;;4.25;2.40;;;23.10;56.60;;;;;;5036281;28;20033;-70
2021/06/28 04:41:15;;;;;;;4.35;2.60;;;23.00;56.60;;;;;;5036551;28;20021;-70
2021/06/28 04:43:40;;;;;;;4.88;2.88;;;23.10;56.60;;;;;;5036322;28;20047;-70
2021/06/28 04:46:06;;;;;;;5.43;2.88;;;23.00;56.60;;;;;;5036062;28;20096;-70
2021/06/28 04:48:31;;;;;;;4.68;2.58;;;23.10;56.70;;;;;;5036171;28;20052;-70
2021/06/28 04:50:57;;;;;;;4.70;2.60;;;23.00;56.60;;;;;;5036172;28;20037;-70
2021/06/28 04:53:22;;;;;;;4.43;2.40;;;23.00;56.60;;;;;;5036253;28;20060;-70
2021/06/28 04:55:48;;;;;;;4.28;2.78;;;23.00;56.70;;;;;;5036438;28;20026;-70
2021/06/28 04:58:14;;;;;;;4.35;2.63;;;23.10;56.70;;;;;;5039997;28;20032;-70
2021/06/28 05:00:39;;;;;;;4.32;2.70;;;23.10;56.70;;;;;;5038908;28;20078;-70
2021/06/28 05:03:05;;;;;;;5.18;2.88;;;23.00;56.70;;;;;;5036290;28;20383;-69
2021/06/28 05:05:30;;;;;;;4.85;2.70;;;23.00;56.70;;;;;;5036001;28;20097;-70
2021/06/28 05:07:56;;;;;;;3.75;2.20;;;23.10;56.70;;;;;;5035866;28;20116;-70
2021/06/28 05:10:22;;;;;;;4.82;2.78;;;23.10;56.70;;;;;;5035777;28;20100;-70
2021/06/28 05:12:48;;;;;;;4.05;2.70;;;23.10;56.70;;;;;;5034797;28;20022;-70
2021/06/28 05:15:14;;;;;;;4.28;2.40;;;23.00;56.70;;;;;;5001726;28;20013;-70
2021/06/28 05:17:40;;;;;;;4.13;2.53;;;23.10;56.60;;;;;;5035804;28;20049;-70
2021/06/28 05:20:08;;;;;;;3.70;2.30;;;23.10;56.70;;;;;;5035381;28;20071;-70
2021/06/28 05:22:33;;;;;;;6.15;2.33;;;23.10;56.70;;;;;;5035590;28;20042;-70
2021/06/28 05:24:59;;;;;;;5.32;2.75;;;23.10;56.60;;;;;;5035696;28;20075;-70
2021/06/28 05:27:24;;;;;;;5.13;2.80;;;23.10;56.60;;;;;;5035318;28;20519;-69
2021/06/28 05:29:56;;;;;;;6.18;2.75;;;23.10;56.60;;;;;;5035489;28;20045;-70
2021/06/28 05:32:24;;;;;;;4.80;2.65;;;23.10;56.60;;;;;;5017695;28;20056;-70
2021/06/28 05:34:50;;;;;;;4.38;2.35;;;23.10;56.60;;;;;;5035190;28;20048;-70
2021/06/28 05:37:17;;;;;;;4.80;2.55;;;23.10;56.60;;;;;;5035339;28;20029;-70
2021/06/28 05:39:43;;;;;;;5.45;2.95;;;23.10;56.50;;;;;;5035074;28;20030;-70
2021/06/28 05:42:09;;;;;;;4.13;2.55;;;23.10;56.50;;;;;;5035098;28;20473;-70
2021/06/28 05:44:34;;;;;;;4.05;2.50;;;23.10;56.50;;;;;;5035113;28;20041;-69
2021/06/28 05:47:00;;;;;;;4.30;2.55;;;23.10;56.40;;;;;;5034869;28;20029;-70
2021/06/28 05:49:25;;;;;;;4.15;2.60;;;23.20;56.40;;;;;;5035241;28;20032;-70
2021/06/28 05:51:51;;;;;;;4.40;2.70;;;23.10;56.40;;;;;;5035122;28;20026;-70
2021/06/28 05:54:17;;;;;;;4.25;2.50;;;23.10;56.40;;;;;;5035025;28;20077;-70
2021/06/28 05:56:42;;;;;;;5.53;3.17;;;23.20;56.40;;;;;;5035142;28;20067;-70
2021/06/28 05:59:08;;;;;;;4.15;2.28;;;23.20;56.40;;;;;;5035056;28;20022;-71
2021/06/28 06:01:33;;;;;;;4.13;2.80;;;23.20;56.30;;;;;;5035196;28;20133;-69
2021/06/28 06:03:59;;;;;;;3.83;2.47;;;23.20;56.20;;;;;;5035159;28;20388;-71
2021/06/28 06:06:24;;;;;;;5.30;2.78;;;23.30;56.20;;;;;;5035232;28;20056;-71
2021/06/28 06:08:50;;;;;;;3.88;2.15;;;23.20;56.10;;;;;;5041383;28;20443;-71
2021/06/28 06:11:16;;;;;;;4.63;2.50;;;23.20;56.20;;;;;;5042553;28;20025;-71
2021/06/28 06:13:42;;;;;;;4.82;2.97;;;23.20;56.20;;;;;;5038988;28;20025;-70
2021/06/28 06:16:07;;;;;;;3.95;2.42;;;23.20;56.20;;;;;;5035706;28;20477;-71
2021/06/28 06:18:33;;;;;;;4.47;2.33;;;23.20;56.30;;;;;;5038348;28;20049;-71
2021/06/28 06:20:58;;;;;;;6.28;2.55;;;23.20;56.30;;;;;;5037015;28;20041;-71
2021/06/28 06:23:24;;;;;;;3.97;2.50;;;23.20;56.10;;;;;;5036276;28;20040;-71
2021/06/28 06:25:50;;;;;;;4.43;2.60;;;23.20;56.10;;;;;;5034600;28;20030;-71
2021/06/28 06:28:15;;;;;;;4.68;2.50;;;23.20;56.10;;;;;;5034843;28;20479;-71
2021/06/28 06:30:42;;;;;;;5.85;2.72;;;23.30;56.00;;;;;;5034032;28;20025;-71
2021/06/28 06:33:09;;;;;;;4.60;2.63;;;23.40;56.00;;;;;;5033379;28;20040;-72
2021/06/28 06:35:34;;;;;;;3.67;2.20;;;23.40;56.00;;;;;;5033686;28;20021;-71
2021/06/28 06:38:02;;;;;;;3.85;2.22;;;23.40;56.20;;;;;;5036431;28;20035;-72
2021/06/28 06:40:28;;;;;;;5.05;2.72;;;23.40;56.10;;;;;;5035402;28;20389;-71
2021/06/28 06:42:56;;;;;;;8.50;3.00;;;23.40;56.00;;;;;;5029050;28;20553;-72
2021/06/28 06:45:22;;;;;;;5.18;2.75;;;23.40;56.10;;;;;;5026988;28;20049;-72
2021/06/28 06:47:49;;;;;;;4.18;2.35;;;23.40;56.10;;;;;;5032625;28;20037;-72
2021/06/28 06:50:16;;;;;;;7.25;3.30;;;23.40;56.30;;;;;;5032516;28;20033;-70
2021/06/28 06:52:43;;;;;;;7.22;2.97;;;23.40;56.20;;;;;;5031323;28;20488;-72
2021/06/28 06:55:10;;;;;;;5.00;3.13;;;23.50;56.40;;;;;;5026846;28;20028;-70
2021/06/28 06:57:37;;;;;;;5.10;2.40;;;23.50;56.20;;;;;;5033378;28;20026;-70
2021/06/28 07:00:05;;;;;;;4.75;2.88;;;23.50;56.50;;;;;;5032877;28;20031;-70
2021/06/28 07:02:31;;;;;;;5.82;2.47;;;23.50;56.50;;;;;;5020225;28;20029;-69
2021/06/28 07:04:57;;;;;;;4.93;2.85;;;23.50;56.50;;;;;;5017375;28;20113;-69
2021/06/28 07:07:23;;;;;;;7.15;4.50;;;23.50;58.50;;;;;;5028092;28;20037;-70
2021/06/28 07:09:49;;;;;;;9.05;5.75;;;23.40;61.70;;;;;;5028442;28;20037;-68
2021/06/28 07:12:14;;;;;;;7.53;5.22;;;23.40;63.00;;;;;;5033848;28;20028;-68
2021/06/28 07:14:40;;;;;;;9.02;4.90;;;23.30;62.90;;;;;;5034019;28;20061;-68
2021/06/28 07:17:05;;;;;;;8.88;5.65;;;23.40;61.30;;;;;;5035814;28;20033;-71
2021/06/28 07:19:31;;;;;;;10.38;6.72;;;23.40;63.20;;;;;;5034719;28;20021;-68
2021/06/28 07:21:57;;;;;;;7.22;4.72;;;23.50;62.80;;;;;;5024049;28;20529;-70
2021/06/28 07:24:22;;;;;;;9.48;5.85;;;23.50;61.50;;;;;;5040636;28;20152;-68
2021/06/28 07:26:48;;;;;;;8.55;4.75;;;23.50;63.00;;;;;;5034451;28;20060;-68
2021/06/28 07:29:14;;;;;;;8.52;5.70;;;23.50;63.40;;;;;;5012274;28;20064;-69
2021/06/28 07:31:40;;;;;;;8.70;5.00;;;23.50;65.20;;;;;;5010844;28;20022;-69
2021/06/28 07:34:06;;;;;;;9.65;4.95;;;23.60;62.90;;;;;;5018644;28;20025;-69
2021/06/28 07:36:32;;;;;;;8.40;5.50;;;23.60;64.30;;;;;;5032123;28;20072;-67
2021/06/28 07:39:02;;;;;;;10.35;5.68;;;23.60;65.50;;;;;;5031581;28;20391;-70
2021/06/28 07:41:29;;;;;;;11.95;6.43;;;23.60;66.10;;;;;;5030592;28;20057;-70
2021/06/28 07:43:56;;;;;;;13.85;6.53;;;23.50;66.50;;;;;;5031134;28;20103;-69
2021/06/28 07:46:22;;;;;;;10.50;7.13;;;23.50;66.60;;;;;;5030889;28;20033;-69
2021/06/28 07:48:48;;;;;;;9.05;6.53;;;23.50;67.00;;;;;;5030872;28;20117;-71
2021/06/28 07:51:13;;;;;;;10.93;7.10;;;23.60;65.20;;;;;;5023256;28;20045;-69
2021/06/28 07:53:39;;;;;;;10.27;7.03;;;23.60;66.50;;;;;;5027847;28;20033;-69
2021/06/28 07:56:14;;;;;;;14.55;6.72;;;23.60;66.40;;;;;;5028570;28;20079;-67
2021/06/28 07:58:42;;;;;;;11.90;8.20;;;23.60;65.70;;;;;;5032308;28;20057;-69
2021/06/28 08:01:08;;;;;;;11.43;7.65;;;23.60;66.20;;;;;;5030336;28;20022;-69
2021/06/28 08:03:33;;;;;;;11.10;8.65;;;23.50;66.20;;;;;;5031794;28;20080;-67
2021/06/28 08:05:59;;;;;;;15.07;7.38;;;23.60;66.70;;;;;;5031555;28;20643;-67
2021/06/28 08:08:25;;;;;;;11.02;8.05;;;23.60;67.40;;;;;;5031797;28;20033;-68
2021/06/28 08:10:50;;;;;;;10.90;7.97;;;23.50;66.80;;;;;;5030946;28;20033;-67
2021/06/28 08:13:16;;;;;;;11.10;7.13;;;23.70;65.60;;;;;;5031015;28;20068;-67
2021/06/28 08:15:41;;;;;;;10.43;7.10;;;23.70;65.50;;;;;;5013747;28;20095;-68
2021/06/28 08:18:07;;;;;;;12.68;6.85;;;23.70;64.80;;;;;;5030938;28;20026;-70
2021/06/28 08:20:34;;;;;;;11.40;7.88;;;23.70;65.50;;;;;;5031477;28;20521;-70
2021/06/28 08:23:00;;;;;;;12.48;6.43;;;23.70;64.70;;;;;;5030695;28;20485;-72
2021/06/28 08:25:26;;;;;;;11.70;7.30;;;23.70;65.10;;;;;;5030855;28;20025;-68
2021/06/28 08:27:52;;;;;;;10.55;6.25;;;23.70;65.20;;;;;;5031061;28;20036;-68
2021/06/28 08:30:18;;;;;;;13.30;7.07;;;23.70;64.30;;;;;;5031650;28;20028;-67
2021/06/28 08:32:43;;;;;;;12.00;6.97;;;23.80;64.10;;;;;;5029866;28;20064;-68
2021/06/28 08:35:09;;;;;;;12.82;7.25;;;23.80;65.10;;;;;;5031757;28;20057;-68
2021/06/28 08:37:35;;;;;;;10.65;6.18;;;23.80;65.10;;;;;;5031185;28;20033;-68
2021/06/28 08:40:01;;;;;;;8.90;6.07;;;23.80;64.20;;;;;;5030858;28;20081;-68
2021/06/28 08:42:26;;;;;;;9.93;6.65;;;23.80;65.00;;;;;;5030214;28;20041;-69
2021/06/28 08:44:53;;;;;;;11.57;6.25;;;23.80;65.10;;;;;;5034962;28;20029;-68
2021/06/28 08:47:18;;;;;;;10.57;6.68;;;23.80;64.40;;;;;;5032837;28;20026;-68
2021/06/28 08:49:44;;;;;;;10.45;6.72;;;23.90;64.90;;;;;;5034516;28;20014;-69
2021/06/28 08:52:10;;;;;;;11.15;6.75;;;23.90;64.40;;;;;;5035180;28;20041;-69
2021/06/28 08:54:36;;;;;;;12.27;7.72;;;23.90;64.50;;;;;;5034136;28;20072;-69
2021/06/28 08:57:01;;;;;;;9.32;5.78;;;24.00;65.10;;;;;;5032720;28;20025;-68
2021/06/28 08:59:27;;;;;;;10.07;6.97;;;24.00;64.50;;;;;;5033545;28;20028;-70
2021/06/28 09:01:53;;;;;;;10.95;7.07;;;24.00;65.00;;;;;;5033691;28;20046;-73
2021/06/28 09:04:21;;;;;;;8.35;5.68;;;24.00;65.10;;;;;;5034082;28;20107;-69
2021/06/28 09:06:46;;;;;;;13.90;6.10;;;24.10;65.20;;;;;;5034045;28;20071;-66
2021/06/28 09:09:14;;;;;;;7.93;5.53;;;24.10;65.40;;;;;;5033954;28;20456;-67
2021/06/28 09:11:45;;;;;;;8.25;6.10;;;24.20;65.10;;;;;;5033375;28;20044;-67
2021/06/28 09:14:12;;;;;;;10.00;5.97;;;24.20;65.40;;;;;;5033664;28;20043;-68
2021/06/28 09:16:40;;;;;;;7.97;5.22;;;24.20;64.90;;;;;;5033331;28;20065;-67
2021/06/28 09:19:12;;;;;;;11.05;5.93;;;24.20;64.70;;;;;;5033566;28;20032;-67
2021/06/28 09:21:38;;;;;;;9.80;5.28;;;24.20;64.90;;;;;;5033656;28;20029;-67
2021/06/28 09:24:08;;;;;;;9.73;5.88;;;24.20;65.10;;;;;;5033862;28;20554;-67
2021/06/28 09:26:36;;;;;;;13.50;6.00;;;24.20;64.80;;;;;;5031676;28;20021;-68
2021/06/28 09:29:08;;;;;;;10.30;5.53;;;24.20;64.80;;;;;;5033082;28;20056;-68
2021/06/28 09:31:45;;;;;;;7.45;5.13;;;24.20;64.70;;;;;;5029118;28;20030;-67
2021/06/28 09:34:16;;;;;;;7.15;4.85;;;24.20;64.30;;;;;;5033885;28;20618;-67
2021/06/28 09:36:54;;;;;;;9.50;5.90;;;24.20;64.60;;;;;;5033121;28;20029;-67
2021/06/28 09:39:27;;;;;;;8.07;4.57;;;24.20;64.50;;;;;;5033100;28;20029;-67
2021/06/28 09:42:06;;;;;;;9.00;6.15;;;24.20;64.30;;;;;;5028554;28;20572;-67
2021/06/28 09:44:34;;;;;;;10.93;6.45;;;24.20;64.30;;;;;;5036053;28;20041;-68
2021/06/28 09:47:15;;;;;;;9.07;6.28;;;24.20;64.20;;;;;;5032804;28;20053;-68
2021/06/28 09:50:05;;;;;;;9.40;5.90;;;24.20;64.00;;;;;;5034106;28;20049;-68
2021/06/28 09:52:38;;;;;;;7.05;4.38;;;24.20;63.80;;;;;;5017316;28;20109;-66
2021/06/28 09:55:36;;;;;;;7.90;5.20;;;24.20;63.90;;;;;;5033121;28;20056;-67
2021/06/28 09:58:22;;;;;;;6.88;4.50;;;24.30;64.10;;;;;;5020547;28;20061;-67
2021/06/28 10:00:50;;;;;;;9.10;5.05;;;24.30;64.40;;;;;;5032111;28;20499;-67
2021/06/28 10:03:34;;;;;;;9.05;5.28;;;24.40;63.90;;;;;;5033928;28;20042;-67
2021/06/28 10:08:35;;;;;;;9.77;5.80;;;24.40;63.80;;;;;;5033013;28;20048;-67
2021/06/28 10:11:13;;;;;;;8.90;5.70;;;24.40;63.50;;;;;;5032528;28;20100;-66
2021/06/28 10:13:40;;;;;;;7.35;5.60;;;24.40;63.40;;;;;;5035709;28;20061;-67
2021/06/28 10:16:06;;;;;;;7.97;4.70;;;24.40;63.40;;;;;;5027523;28;20701;-66
2021/06/28 10:18:32;;;;;;;9.07;5.68;;;24.40;63.80;;;;;;5033226;28;20096;-67
2021/06/28 10:20:58;;;;;;;10.93;6.57;;;24.50;63.80;;;;;;5020310;28;20103;-67
2021/06/28 10:23:23;;;;;;;11.07;6.18;;;24.50;63.60;;;;;;5034330;28;20120;-69
2021/06/28 10:25:49;;;;;;;8.93;5.70;;;24.50;63.70;;;;;;5034392;28;20040;-67
2021/06/28 10:28:14;;;;;;;7.63;5.40;;;24.50;63.40;;;;;;5014990;28;20029;-66
2021/06/28 10:30:40;;;;;;;8.90;5.80;;;24.50;63.40;;;;;;5032682;28;20125;-67
2021/06/28 10:33:09;;;;;;;7.88;5.50;;;24.50;63.50;;;;;;5032633;28;20040;-67
2021/06/28 10:35:38;;;;;;;9.43;5.78;;;24.50;63.60;;;;;;5031844;28;20040;-67
2021/06/28 10:38:07;;;;;;;8.45;5.38;;;24.50;63.20;;;;;;5014140;28;20493;-67
2021/06/28 10:40:50;;;;;;;8.20;5.55;;;24.50;63.50;;;;;;5032361;28;20071;-67
2021/06/28 10:43:36;;;;;;;8.35;5.35;;;24.50;63.40;;;;;;5032452;28;20059;-67
2021/06/28 10:46:05;;;;;;;8.57;5.85;;;24.50;63.30;;;;;;5032308;28;20064;-67
2021/06/28 10:48:44;;;;;;;9.43;5.50;;;24.50;63.30;;;;;;5031708;28;20390;-67
2021/06/28 10:51:10;;;;;;;8.45;5.90;;;24.50;63.50;;;;;;5032424;28;20029;-67
2021/06/28 10:53:36;;;;;;;9.45;5.28;;;24.50;63.80;;;;;;5032870;28;20051;-67
2021/06/28 10:56:28;;;;;;;8.23;5.82;;;24.50;63.50;;;;;;5032736;28;20029;-67
2021/06/28 10:59:03;;;;;;;8.52;5.65;;;24.50;63.50;;;;;;5031675;28;20053;-67
2021/06/28 11:01:35;;;;;;;8.52;5.53;;;24.50;63.30;;;;;;5033524;28;20033;-67
2021/06/28 11:04:07;;;;;;;8.18;4.82;;;24.50;63.40;;;;;;5034537;28;20045;-67
2021/06/28 11:06:34;;;;;;;7.95;5.63;;;24.50;63.20;;;;;;5005500;28;20474;-68
2021/06/28 11:09:08;;;;;;;7.63;5.40;;;24.50;63.30;;;;;;5012714;28;20386;-67
2021/06/28 11:11:46;;;;;;;7.22;5.30;;;24.50;63.20;;;;;;5013222;28;20026;-67
2021/06/28 11:14:18;;;;;;;10.23;5.38;;;24.50;63.00;;;;;;5013391;28;20026;-67
2021/06/28 11:17:07;;;;;;;7.03;5.25;;;24.50;63.00;;;;;;5019026;28;20029;-67
2021/06/28 11:19:46;;;;;;;11.30;5.40;;;24.50;62.90;;;;;;5032725;28;20033;-68
2021/06/28 11:22:31;;;;;;;8.00;4.70;;;24.50;62.90;;;;;;5031814;28;20037;-67
2021/06/28 11:24:59;;;;;;;8.85;5.25;;;24.50;62.70;;;;;;5025556;28;20099;-67
2021/06/28 11:27:25;;;;;;;8.40;4.68;;;24.50;63.10;;;;;;5014500;28;20022;-67
2021/06/28 11:29:53;;;;;;;6.80;4.78;;;24.50;62.90;;;;;;5032544;28;20439;-67
2021/06/28 11:32:23;;;;;;;7.75;5.10;;;24.50;62.90;;;;;;5032712;28;20021;-67
2021/06/28 11:34:48;;;;;;;9.95;5.40;;;24.50;62.90;;;;;;5030906;28;20025;-67
2021/06/28 11:37:14;;;;;;;8.10;5.35;;;24.40;62.90;;;;;;5032408;28;20500;-68
2021/06/28 11:39:57;;;;;;;7.68;4.93;;;24.50;63.00;;;;;;5032087;28;20025;-64
2021/06/28 11:42:33;;;;;;;9.07;5.22;;;24.40;62.80;;;;;;5029039;28;20056;-66
2021/06/28 11:45:09;;;;;;;9.18;5.50;;;24.40;63.00;;;;;;5012271;28;20042;-65
2021/06/28 11:47:44;;;;;;;9.50;5.47;;;24.40;63.00;;;;;;5011998;28;20409;-66
2021/06/28 11:50:31;;;;;;;7.40;5.05;;;24.40;63.10;;;;;;4997392;28;20038;-65
2021/06/28 11:52:58;;;;;;;9.07;5.05;;;24.40;63.00;;;;;;5012278;28;20038;-66
2021/06/28 11:55:24;;;;;;;7.75;5.07;;;24.40;63.20;;;;;;5014948;28;20038;-66
2021/06/28 11:57:55;;;;;;;7.00;4.75;;;24.40;63.10;;;;;;5017462;28;20084;-66
2021/06/28 12:00:21;;;;;;;8.73;5.00;;;24.40;63.10;;;;;;5012474;28;20026;-67
2021/06/28 12:02:47;;;;;;;8.05;4.68;;;24.40;63.10;;;;;;4992139;28;20078;-64
2021/06/28 12:05:12;;;;;;;9.32;5.15;;;24.50;63.10;;;;;;5009744;28;20056;-64
2021/06/28 12:07:40;;;;;;;7.30;4.78;;;24.40;62.90;;;;;;5012345;28;20033;-65
2021/06/28 12:10:06;;;;;;;10.18;5.30;;;24.40;63.00;;;;;;5010563;28;20026;-65
2021/06/28 12:12:32;;;;;;;9.30;5.78;;;24.50;63.00;;;;;;5010989;28;20030;-64
2021/06/28 12:14:58;;;;;;;8.02;5.47;;;24.50;62.70;;;;;;5012443;28;20038;-67
2021/06/28 12:17:30;;;;;;;7.45;5.07;;;24.50;62.60;;;;;;5012516;28;20022;-67
2021/06/28 12:20:00;;;;;;;9.07;4.95;;;24.60;62.60;;;;;;5012023;28;20446;-65
2021/06/28 12:22:32;;;;;;;7.75;5.13;;;24.70;62.40;;;;;;5015083;28;20447;-65
2021/06/28 12:25:06;;;;;;;7.82;5.40;;;24.70;62.30;;;;;;5015627;28;20109;-65
2021/06/28 12:27:34;;;;;;;9.82;4.88;;;24.80;62.40;;;;;;5015789;28;20450;-66
2021/06/28 12:30:01;;;;;;;9.57;4.80;;;24.80;62.20;;;;;;5016084;28;20470;-66
2021/06/28 12:32:28;;;;;;;6.97;4.50;;;24.90;62.00;;;;;;5015367;28;20091;-66
2021/06/28 12:34:56;;;;;;;7.50;4.70;;;24.90;61.90;;;;;;5015991;28;20488;-66
2021/06/28 12:37:25;;;;;;;7.07;4.32;;;25.00;61.70;;;;;;5016144;28;20120;-66
2021/06/28 12:39:51;;;;;;;9.00;5.25;;;25.00;61.60;;;;;;5016243;28;20026;-65
2021/06/28 12:42:19;;;;;;;6.65;4.50;;;25.10;61.50;;;;;;5015025;28;20112;-68
2021/06/28 12:44:47;;;;;;;6.28;4.32;;;25.10;61.30;;;;;;5018382;28;20042;-67
2021/06/28 12:47:16;;;;;;;5.97;4.13;;;25.20;61.20;;;;;;5036150;28;20500;-67
2021/06/28 12:49:42;;;;;;;6.22;4.13;;;25.20;61.10;;;;;;5035749;28;20388;-67